Home > Products > Valid Products > MTR

000
SAUS43 KUNR 200357
MTR2WX
METAR K2WX 200356Z AUTO 28005KT M02/M06 A2983 RMK AO1 SLP134
T10171061





000
SAUS43 KUNR 200357
MTRD07
METAR KD07 200356Z AUTO 20006KT M03/M06 A2992 RMK AO1 SLP166
T10281056





000
SAUS43 KUNR 200257
MTR2WX
METAR K2WX 200256Z AUTO 19005KT M03/M07 A2984 RMK AO1 SLP138
T10281067 58001





000
SAUS43 KUNR 200257
MTRD07
METAR KD07 200256Z AUTO 21007KT M02/M05 A2992 RMK AO1 SLP168
T10171050 58001





000
SAUS43 KUNR 200157
MTR2WX
METAR K2WX 200156Z AUTO 27003KT 02/M05 A2984 RMK AO1 SLP134
T00221050





000
SAUS43 KUNR 200157
MTRD07
METAR KD07 200156Z AUTO 20009KT M02/M04 A2993 RMK AO1 SLP169
T10171044





000
SAUS43 KUNR 200157
MTRD07
METAR KD07 200156Z AUTO 20009KT M02/M04 A2993 RMK AO1 SLP169
T10171044





000
SAUS43 KUNR 200157
MTR2WX
METAR K2WX 200156Z AUTO 27003KT 02/M05 A2984 RMK AO1 SLP134
T00221050





000
SAUS43 KUNR 200058
MTRD07
METAR KD07 200056Z AUTO 19006KT M01/M04 A2993 RMK AO1 SLP168
T10111039





000
SAUS43 KUNR 200057
MTR2WX
METAR K2WX 200056Z AUTO 25004KT 02/M06 A2984 RMK AO1 SLP135
T00221056





000
SAUS43 KUNR 192358
MTRD07
METAR KD07 192356Z AUTO 17008KT M01/M03 A2993 RMK AO1 SLP168
T10111033 10056 21011 51003





000
SAUS43 KUNR 192357
MTR2WX
METAR K2WX 192356Z AUTO 00000KT 05/M05 A2984 RMK AO1 SLP129
T00501050 10072 20033 50003





000
SAUS43 KUNR 192257
MTRD07
METAR KD07 192256Z AUTO 16006KT 02/M02 A2993 RMK AO1 SLP165
T00171017





000
SAUS43 KUNR 192257
MTR2WX
METAR K2WX 192256Z AUTO 00000KT 06/M05 A2984 RMK AO1 SLP129
T00561050





000
SAUS43 KUNR 192158
MTR2WX
METAR K2WX 192156Z AUTO 34003KT 07/M05 A2984 RMK AO1 SLP126
T00721050





000
SAUS43 KUNR 192157
MTRD07
METAR KD07 192156Z AUTO 24005KT 05/M02 A2992 RMK AO1 SLP160
T00501022





000
SAUS43 KUNR 192058
MTR2WX
METAR K2WX 192056Z AUTO 25006KT 07/M05 A2983 RMK AO1 SLP123
T00671050 56016





000
SAUS43 KUNR 191958
MTR2WX
METAR K2WX 191956Z AUTO 25009KT 07/M04 A2983 RMK AO1 SLP125
T00671044





000
SAUS43 KUNR 191958
MTR2WX
METAR K2WX 191956Z AUTO 25009KT 07/M04 A2983 RMK AO1 SLP125
T00671044





000
SAUS43 KUNR 191858
MTRD07
METAR KD07 191856Z AUTO 26006KT 02/M02 A2994 RMK AO1 SLP172
T00221022





000
SAUS43 KUNR 191857
MTR2WX
METAR K2WX 191856Z AUTO 25010KT 04/M05 A2985 RMK AO1 SLP136
T00441050





000
SAUS43 KUNR 191757
MTRD07
METAR KD07 191756Z AUTO 25008KT 02/M02 A2995 RMK AO1 SLP175
T00171022 10017 21033 58003





000
SAUS43 KUNR 191757
MTR2WX
METAR K2WX 191756Z AUTO 26010KT 03/M04 A2988 RMK AO1 SLP147
T00331044 10033 21028 58000





000
SAUS43 KUNR 191657
MTR2WX
METAR K2WX 191656Z AUTO 26006KT 01/M04 A2989 RMK AO1 SLP151
T00061039





000
SAUS43 KUNR 191657
MTRD07
METAR KD07 191656Z AUTO 28005KT 01/M03 A2996 RMK AO1 SLP180
T00111028





000
SAUS43 KUNR 191558
MTRD07
METAR KD07 191556Z AUTO 28006KT M01/M04 A2997 RMK AO1 SLP184
T10061039





000
SAUS43 KUNR 191557
MTR2WX
METAR K2WX 191556Z AUTO 26007KT M01/M06 A2988 RMK AO1 SLP150
T10061061





000
SAUS43 KUNR 191458
MTRD07
METAR KD07 191456Z AUTO 25008KT M03/M06 A2996 RMK AO1 SLP183
T10281061 52001





000
SAUS43 KUNR 191457
MTR2WX
METAR K2WX 191456Z AUTO 25006KT M02/M07 A2988 RMK AO1 SLP150
T10171067 50003





000
SAUS43 KUNR 191357
MTRD07
METAR KD07 191356Z AUTO 23005KT M02/M06 A2996 RMK AO1 SLP183
T10221061





000
SAUS43 KUNR 191357
MTR2WX
METAR K2WX 191356Z AUTO 27008KT M03/M07 A2988 RMK AO1 SLP152
T10281072





000
SAUS43 KUNR 191258
MTR2WX
METAR K2WX 191256Z AUTO 28008KT M03/M07 A2988 RMK AO1 SLP149
T10281072





000
SAUS43 KUNR 191257
MTRD07
METAR KD07 191256Z AUTO 24008KT M02/M05 A2995 RMK AO1 SLP180
T10221050





000
SAUS43 KUNR 191158
MTR2WX
METAR K2WX 191156Z AUTO 26007KT M02/M07 A2987 RMK AO1 SLP145
T10221072 11017 21039 55004





000
SAUS43 KUNR 191157
MTRD07
METAR KD07 191156Z AUTO 24009KT M02/M05 A2995 RMK AO1 SLP180
T10221050 11017 21056 56006





000
SAUS43 KUNR 191058
MTR2WX
METAR K2WX 191056Z AUTO 26007KT M03/M07 A2987 RMK AO1 SLP142
T10281067





000
SAUS43 KUNR 191057
MTRD07
METAR KD07 191056Z AUTO 24008KT M03/M06 A2996 RMK AO1 SLP180
T10281056





000
SAUS43 KUNR 190958
MTR2WX
METAR K2WX 190956Z AUTO 25010KT M02/M06 A2988 RMK AO1 SLP141
T10171061





000
SAUS43 KUNR 190958
MTR2WX
METAR K2WX 190956Z AUTO 25010KT M02/M06 A2988 RMK AO1 SLP141
T10171061





000
SAUS43 KUNR 190957
MTRD07
METAR KD07 190956Z AUTO 25008KT M03/M06 A2996 RMK AO1 SLP180
T10281061





000
SAUS43 KUNR 190957
MTRD07
METAR KD07 190956Z AUTO 25008KT M03/M06 A2996 RMK AO1 SLP180
T10281061





000
SAUS43 KUNR 190858
MTRD07
METAR KD07 190856Z AUTO 23009KT M04/M06 A2997 RMK AO1 SLP185
T10391061 55006





000
SAUS43 KUNR 190857
MTR2WX
METAR K2WX 190856Z AUTO 26009KT M02/M06 A2988 RMK AO1 SLP144
T10221061 55003





000
SAUS43 KUNR 190759
MTR2WX
METAR K2WX 190756Z AUTO 26009KT M02/M06 A2988 RMK AO1 SLP147
T10221061





000
SAUS43 KUNR 190757
MTRD07
METAR KD07 190756Z AUTO 21008KT M04/M06 A2997 RMK AO1 SLP186
T10441061





000
SAUS43 KUNR 190658
MTR2WX
METAR K2WX 190656Z AUTO 27007KT M02/M06 A2989 RMK AO1 SLP151
T10221061 400561056





000
SAUS43 KUNR 190657
MTRD07
METAR KD07 190656Z AUTO 20008KT M06/M07 A2998 RMK AO1 SLP190
T10561072 410111067





000
SAUS43 KUNR 190558
MTR2WX
METAR K2WX 190556Z AUTO 27009KT M03/M06 A2989 RMK AO1 SLP158
T10331061 10011 21033 55000





000
SAUS43 KUNR 190557
MTRD07
METAR KD07 190556Z AUTO 20009KT M05/M07 A2999 RMK AO1 SLP196
T10501072 11033 21061 55002





000
SAUS43 KUNR 190458
MTR2WX
METAR K2WX 190456Z AUTO 26008KT M02/M06 A2989 RMK AO1 SLP159
T10221056





000
SAUS43 KUNR 190457
MTRD07
METAR KD07 190456Z AUTO 20007KT M05/M07 A2999 RMK AO1 SLP193
T10501072





000
SAUS43 KUNR 190358
MTR2WX
METAR K2WX 190356Z AUTO 27009KT M02/M05 A2989 RMK AO1 SLP159
T10171050





000
SAUS43 KUNR 190358
MTR2WX
METAR K2WX 190356Z AUTO 27009KT M02/M05 A2989 RMK AO1 SLP159
T10171050





000
SAUS43 KUNR 190357
MTRD07
METAR KD07 190356Z AUTO 19010KT M05/M07 A2999 RMK AO1 SLP196
T10501072





000
SAUS43 KUNR 190357
MTRD07
METAR KD07 190356Z AUTO 19010KT M05/M07 A2999 RMK AO1 SLP196
T10501072





000
SAUS43 KUNR 190258
MTR2WX
METAR K2WX 190256Z AUTO 21004KT M01/M05 A2989 RMK AO1 SLP161
T10111050 58001





000
SAUS43 KUNR 190257
MTRD07
METAR KD07 190256Z AUTO 18012KT M05/M07 A3000 RMK AO1 SLP201
T10501072 53002





000
SAUS43 KUNR 190158
MTRD07
METAR KD07 190156Z AUTO 17012KT M04/M07 A2999 RMK AO1 SLP199
T10441072





000
SAUS43 KUNR 190158
MTRD07
METAR KD07 190156Z AUTO 17012KT M04/M07 A2999 RMK AO1 SLP199
T10441072





000
SAUS43 KUNR 190157
MTR2WX
METAR K2WX 190156Z AUTO 20007KT M01/M04 A2990 RMK AO1 SLP162
T10111044





000
SAUS43 KUNR 190157
MTR2WX
METAR K2WX 190156Z AUTO 20007KT M01/M04 A2990 RMK AO1 SLP162
T10111044





000
SAUS43 KUNR 190058
MTR2WX
METAR K2WX 190056Z AUTO 24006KT 01/M04 A2990 RMK AO1 SLP160
T00061044





000
SAUS43 KUNR 190057
MTRD07
METAR KD07 190056Z AUTO 17012KT M04/M07 A3000 RMK AO1 SLP200
T10441072





000
SAUS43 KUNR 182358
MTR2WX
METAR K2WX 182356Z AUTO 22010KT 01/M04 A2990 RMK AO1 SLP158
T00111039 10056 21017 52009





000
SAUS43 KUNR 182357
MTRD07
METAR KD07 182356Z AUTO 19010KT M03/M06 A3000 RMK AO1 SLP198
T10331056 11011 21033 53004





000
SAUS43 KUNR 182258
MTR2WX
METAR K2WX 182256Z AUTO 25010KT 03/M03 A2989 RMK AO1 SLP151
T00331028





000
SAUS43 KUNR 182257
MTRD07
METAR KD07 182256Z AUTO 21009KT M02/M04 A2999 RMK AO1 SLP193
T10221044





000
SAUS43 KUNR 182157
MTR2WX
METAR K2WX 182156Z AUTO 26010KT 06/M02 A2988 RMK AO1 SLP144
T00561022





000
SAUS43 KUNR 182157
MTRD07
METAR KD07 182156Z AUTO 20011KT M02/M04 A2998 RMK AO1 SLP191
T10171044





000
SAUS43 KUNR 182058
MTR2WX
METAR K2WX 182056Z AUTO 26010KT 05/M02 A2987 RMK AO1 SLP141
T00501017 56013





000
SAUS43 KUNR 182057
MTRD07
METAR KD07 182056Z AUTO 21010KT M01/M04 A2998 RMK AO1 SLP191
T10111039 56014





000
SAUS43 KUNR 181957
MTRD07
METAR KD07 181956Z AUTO 19010KT M02/M04 A2999 RMK AO1 SLP193
T10171044





000
SAUS43 KUNR 181957
MTR2WX
METAR K2WX 181956Z AUTO 26010KT 02/M02 A2987 RMK AO1 SLP148
T00221017





000
SAUS43 KUNR 181858
MTR2WX
METAR K2WX 181856Z AUTO 25008KT 01/M02 A2989 RMK AO1 SLP157
T00061017





000
SAUS43 KUNR 181858
MTRD07
METAR KD07 181856Z AUTO 21012KT M02/M05 A3000 RMK AO1 SLP197
T10221050





000
SAUS43 KUNR 181758
MTR2WX
METAR K2WX 181756Z AUTO 22003KT M02/M03 A2991 RMK AO1 SLP167
T10171028 11017 21056 50005





000
SAUS43 KUNR 181757
MTRD07
METAR KD07 181756Z AUTO 20012KT M03/M06 A3003 RMK AO1 SLP209
T10281056 11028 21061 53003





000
SAUS43 KUNR 181658
MTR2WX
METAR K2WX 181656Z AUTO 00000KT M03/M05 A2991 RMK AO1 SLP171
T10331050





000
SAUS43 KUNR 181657
MTRD07
METAR KD07 181656Z AUTO 20014KT M03/M06 A3002 RMK AO1 SLP208
T10331061





000
SAUS43 KUNR 181558
MTR2WX
METAR K2WX 181556Z AUTO 19003KT M04/M06 A2990 RMK AO1 SLP168
T10441061





000
SAUS43 KUNR 181557
MTRD07
METAR KD07 181556Z AUTO 18008KT M04/M07 A3002 RMK AO1 SLP208
T10441072





000
SAUS43 KUNR 181458
MTR2WX
METAR K2WX 181456Z AUTO 19005KT M06/M07 A2989 RMK AO1 SLP168
T10561072 53003





000
SAUS43 KUNR 181457
MTRD07
METAR KD07 181456Z AUTO 19009KT M05/M08 A3002 RMK AO1 SLP209
T10501083 51006





000
SAUS43 KUNR 181358
MTR2WX
METAR K2WX 181356Z AUTO 19006KT M04/M07 A2989 RMK AO1 SLP164
T10441067





000
SAUS43 KUNR 181358
MTR2WX
METAR K2WX 181356Z AUTO 19006KT M04/M07 A2989 RMK AO1 SLP164
T10441067





000
SAUS43 KUNR 181357
MTRD07
METAR KD07 181356Z AUTO 19007KT M06/M08 A3002 RMK AO1 SLP209
T10561083





000
SAUS43 KUNR 181357
MTRD07
METAR KD07 181356Z AUTO 19007KT M06/M08 A3002 RMK AO1 SLP209
T10561083





000
SAUS43 KUNR 181258
MTR2WX
METAR K2WX 181256Z AUTO 19005KT M04/M06 A2989 RMK AO1 SLP164
T10441061





000
SAUS43 KUNR 181258
MTR2WX
METAR K2WX 181256Z AUTO 19005KT M04/M06 A2989 RMK AO1 SLP164
T10441061





000
SAUS43 KUNR 181257
MTRD07
METAR KD07 181256Z AUTO 18011KT M06/M08 A3001 RMK AO1 SLP206
T10561083





000
SAUS43 KUNR 181257
MTRD07
METAR KD07 181256Z AUTO 18011KT M06/M08 A3001 RMK AO1 SLP206
T10561083





000
SAUS43 KUNR 181158
MTR2WX
METAR K2WX 181156Z AUTO 18008KT M04/M06 A2988 RMK AO1 SLP163
T10441061 11044 21056 58005





000
SAUS43 KUNR 181158
MTR2WX
METAR K2WX 181156Z AUTO 18008KT M04/M06 A2988 RMK AO1 SLP163
T10441061 11044 21056 58005





000
SAUS43 KUNR 181157
MTRD07
METAR KD07 181156Z AUTO 16010KT M06/M09 A3000 RMK AO1 SLP205
T10611089 11056 21067 58015





000
SAUS43 KUNR 181157
MTRD07
METAR KD07 181156Z AUTO 16010KT M06/M09 A3000 RMK AO1 SLP205
T10611089 11056 21067 58015





000
SAUS43 KUNR 181058
MTR2WX
METAR K2WX 181056Z AUTO 18009KT M04/M07 A2989 RMK AO1 SLP165
T10441067





000
SAUS43 KUNR 181058
MTR2WX
METAR K2WX 181056Z AUTO 18009KT M04/M07 A2989 RMK AO1 SLP165
T10441067





000
SAUS43 KUNR 181057
MTRD07
METAR KD07 181056Z AUTO 16009KT M06/M09 A3002 RMK AO1 SLP213
T10611089





000
SAUS43 KUNR 181057
MTRD07
METAR KD07 181056Z AUTO 16009KT M06/M09 A3002 RMK AO1 SLP213
T10611089





000
SAUS43 KUNR 180958
MTR2WX
METAR K2WX 180956Z AUTO 18012KT M04/M07 A2990 RMK AO1 SLP169
T10441067





000
SAUS43 KUNR 180957
MTRD07
METAR KD07 180956Z AUTO 16007KT M06/M09 A3004 RMK AO1 SLP218
T10611089





000
SAUS43 KUNR 180858
MTRD07
METAR KD07 180856Z AUTO 16007KT M06/M09 A3005 RMK AO1 SLP222
T10611089 56003





000
SAUS43 KUNR 180858
MTRD07
METAR KD07 180856Z AUTO 16007KT M06/M09 A3005 RMK AO1 SLP222
T10611089 56003





000
SAUS43 KUNR 180857
MTR2WX
METAR K2WX 180856Z AUTO 16009KT M04/M07 A2990 RMK AO1 SLP169
T10441067 57005





000
SAUS43 KUNR 180857
MTR2WX
METAR K2WX 180856Z AUTO 16009KT M04/M07 A2990 RMK AO1 SLP169
T10441067 57005





000
SAUS43 KUNR 180757
MTRD07
METAR KD07 180756Z AUTO 15007KT M06/M09 A3005 RMK AO1 SLP223
T10611089





000
SAUS43 KUNR 180757
MTR2WX
METAR K2WX 180756Z AUTO 16006KT M05/M07 A2990 RMK AO1 SLP172
T10501067





000
SAUS43 KUNR 180757
MTRD07
METAR KD07 180756Z AUTO 15007KT M06/M09 A3005 RMK AO1 SLP223
T10611089





000
SAUS43 KUNR 180757
MTR2WX
METAR K2WX 180756Z AUTO 16006KT M05/M07 A2990 RMK AO1 SLP172
T10501067





000
SAUS43 KUNR 180657
MTRD07
METAR KD07 180656Z AUTO 15010KT M06/M09 A3005 RMK AO1 SLP222
T10611089 410611089





000
SAUS43 KUNR 180657
MTR2WX
METAR K2WX 180656Z AUTO 18007KT M05/M07 A2992 RMK AO1 SLP176
T10501072 410501089





000
SAUS43 KUNR 180557
MTRD07
METAR KD07 180556Z AUTO 14008KT M07/M09 A3006 RMK AO1 SLP226
T10671094 11067 21078 55002





000
SAUS43 KUNR 180557
MTR2WX
METAR K2WX 180556Z AUTO 17009KT M06/M07 A2992 RMK AO1 SLP179
T10561072 11056 21067 55005





000
SAUS43 KUNR 180457
MTR2WX
METAR K2WX 180456Z AUTO 16007KT M06/M08 A2992 RMK AO1 SLP178
T10611078





000
SAUS43 KUNR 180457
MTRD07
METAR KD07 180456Z AUTO 14011KT M07/M09 A3005 RMK AO1 SLP224
T10671094





000
SAUS43 KUNR 180357
MTRD07
METAR KD07 180356Z AUTO 14011KT M07/M09 A3006 RMK AO1 SLP229
T10671094





000
SAUS43 KUNR 180357
MTR2WX
METAR K2WX 180356Z AUTO 16008KT M06/M08 A2993 RMK AO1 SLP184
T10611078





000
SAUS43 KUNR 180357
MTRD07
METAR KD07 180356Z AUTO 14011KT M07/M09 A3006 RMK AO1 SLP229
T10671094





000
SAUS43 KUNR 180257
MTRD07
METAR KD07 180256Z AUTO 14010KT M07/M09 A3006 RMK AO1 SLP229
T10671094 58007





000
SAUS43 KUNR 180257
MTR2WX
METAR K2WX 180256Z AUTO 15008KT M07/M08 A2993 RMK AO1 SLP186
T10671083 58007





000
SAUS43 KUNR 180157
MTR2WX
METAR K2WX 180156Z AUTO 16009KT M07/M08 A2995 RMK AO1 SLP190
T10671083





000
SAUS43 KUNR 180157
MTRD07
METAR KD07 180156Z AUTO 13011KT M07/M09 A3007 RMK AO1 SLP233
T10671094





000
SAUS43 KUNR 180157
MTRD07
METAR KD07 180156Z AUTO 13011KT M07/M09 A3007 RMK AO1 SLP233
T10671094





000
SAUS43 KUNR 180057
MTR2WX
METAR K2WX 180056Z AUTO 14010KT M07/M08 A2995 RMK AO1 SLP190
T10671083





000
SAUS43 KUNR 180057
MTRD07
METAR KD07 180056Z AUTO 11007KT M07/M09 A3008 RMK AO1 SLP235
T10721094





000
SAUS43 KUNR 172357
MTR2WX
METAR K2WX 172356Z AUTO 14009KT M07/M08 A2996 RMK AO1 SLP194
T10671083 11067 21078 53005





000
SAUS43 KUNR 172357
MTRD07
METAR KD07 172356Z AUTO 12010KT M08/M10 A3009 RMK AO1 SLP239
T10781100 11061 21089 53009





000
SAUS43 KUNR 172258
MTRD07
METAR KD07 172256Z AUTO 10009KT M08/M09 A3008 RMK AO1 SLP236
T10781094





000
SAUS43 KUNR 172257
MTR2WX
METAR K2WX 172256Z AUTO 16009KT M07/M08 A2995 RMK AO1 SLP191
T10671083





000
SAUS43 KUNR 172158
MTRD07
METAR KD07 172156Z AUTO 11010KT M08/M09 A3006 RMK AO1 SLP229
T10781094





000
SAUS43 KUNR 172158
MTRD07
METAR KD07 172156Z AUTO 11010KT M08/M09 A3006 RMK AO1 SLP229
T10781094





000
SAUS43 KUNR 172157
MTR2WX
METAR K2WX 172156Z AUTO 15008KT M07/M09 A2994 RMK AO1 SLP189
T10671089





000
SAUS43 KUNR 172157
MTR2WX
METAR K2WX 172156Z AUTO 15008KT M07/M09 A2994 RMK AO1 SLP189
T10671089





000
SAUS43 KUNR 172057
MTR2WX
METAR K2WX 172056Z AUTO 15010KT M07/M09 A2994 RMK AO1 SLP189
T10721089 56013





000
SAUS43 KUNR 172057
MTRD07
METAR KD07 172056Z AUTO 11010KT M08/M10 A3006 RMK AO1 SLP229
T10831100 56016





000
SAUS43 KUNR 171957
MTRD07
METAR KD07 171956Z AUTO 13012KT M08/M10 A3008 RMK AO1 SLP236
T10831100





000
SAUS43 KUNR 171957
MTR2WX
METAR K2WX 171956Z AUTO 14010KT M07/M09 A2995 RMK AO1 SLP194
T10721089





000
SAUS43 KUNR 171858
MTRD07
METAR KD07 171856Z AUTO 12013KT M08/M10 A3008 RMK AO1 SLP237
T10831100





000
SAUS43 KUNR 171857
MTR2WX
METAR K2WX 171856Z AUTO 15011KT M07/M09 A2996 RMK AO1 SLP197
T10721089





000
SAUS43 KUNR 171757
MTR2WX
METAR K2WX 171756Z AUTO 14010KT M08/M09 A2998 RMK AO1 SLP206
T10781094 11078 21083 58006





000
SAUS43 KUNR 171757
MTRD07
METAR KD07 171756Z AUTO 13015KT M08/M10 A3011 RMK AO1 SLP244
T10831100 11083 21089 58008





000
SAUS43 KUNR 171658
MTRD07
METAR KD07 171656Z AUTO 13014KT M09/M10 A3014 RMK AO1 SLP257
T10891100





000
SAUS43 KUNR 171658
MTR2WX
METAR K2WX 171656Z AUTO 14014KT M08/M09 A3000 RMK AO1 SLP213
T10781094





000
SAUS43 KUNR 171557
MTR2WX
METAR K2WX 171556Z AUTO 13012KT M08/M10 A3000 RMK AO1 SLP212
T10831100





000
SAUS43 KUNR 171557
MTRD07
METAR KD07 171556Z AUTO 13013KT M09/M11 A3014 RMK AO1 SLP256
T10891106





000
SAUS43 KUNR 171457
MTRD07
METAR KD07 171456Z AUTO 13013KT M09/M11 A3013 RMK AO1 SLP254
T10891106 56003





000
SAUS43 KUNR 171457
MTR2WX
METAR K2WX 171456Z AUTO 12012KT M08/M10 A3000 RMK AO1 SLP211
T10831100 51002





000
SAUS43 KUNR 171357
MTRD07
METAR KD07 171356Z AUTO 14013KT M09/M11 A3014 RMK AO1 SLP256
T10891106 $





000
SAUS43 KUNR 171357
MTR2WX
METAR K2WX 171356Z AUTO 13012KT M08/M10 A3000 RMK AO1 SLP211
T10831100





000
SAUS43 KUNR 171258
MTR2WX
METAR K2WX 171256Z AUTO 15013KT M08/M10 A3000 RMK AO1 SLP210
T10831100





000
SAUS43 KUNR 171257
MTRD07
METAR KD07 171256Z AUTO 15013KT M09/M11 A3014 RMK AO1 SLP254
T10891106 $





000
SAUS43 KUNR 171158
MTR2WX
METAR K2WX 171156Z AUTO 13012KT M08/M10 A2999 RMK AO1 SLP208
T10831100 11078 21094 56013





000
SAUS43 KUNR 171157
MTRD07
METAR KD07 171156Z AUTO 13010KT M09/M11 A3014 RMK AO1 SLP257
T10891111 11078 21089 58008 $





000
SAUS43 KUNR 171058
MTR2WX
METAR K2WX 171056Z AUTO 13014KT M08/M10 A3001 RMK AO1 SLP212
T10831100





000
SAUS43 KUNR 171057
MTRD07
METAR KD07 171056Z AUTO 14011KT M09/M11 A3015 RMK AO1 SLP261
T10891111 $





000
SAUS43 KUNR 170958
MTR2WX
METAR K2WX 170956Z AUTO 15015KT M08/M10 A3002 RMK AO1 SLP215
T10831100





000
SAUS43 KUNR 170958
MTRD07
METAR KD07 170956Z AUTO 13012KT M09/M11 A3016 RMK AO1 SLP263
T10891106 $





000
SAUS43 KUNR 170858
MTRD07
METAR KD07 170856Z AUTO 12012KT M09/M11 A3017 RMK AO1 SLP265
T10891111 56015 $





000
SAUS43 KUNR 170858
MTRD07
METAR KD07 170856Z AUTO 12012KT M09/M11 A3017 RMK AO1 SLP265
T10891111 56015 $





000
SAUS43 KUNR 170857
MTR2WX
METAR K2WX 170856Z AUTO 13014KT M08/M10 A3004 RMK AO1 SLP222
T10831100 56013





000
SAUS43 KUNR 170857
MTR2WX
METAR K2WX 170856Z AUTO 13014KT M08/M10 A3004 RMK AO1 SLP222
T10831100 56013





000
SAUS43 KUNR 170758
MTR2WX
METAR K2WX 170756Z AUTO 15016KT M08/M10 A3005 RMK AO1 SLP228
T10831100





000
SAUS43 KUNR 170758
MTRD07
METAR KD07 170756Z AUTO 13009KT M09/M12 A3018 RMK AO1 SLP270
T10891117 $





000
SAUS43 KUNR 170758
MTRD07
METAR KD07 170756Z AUTO 13009KT M09/M12 A3018 RMK AO1 SLP270
T10891117 $





000
SAUS43 KUNR 170758
MTR2WX
METAR K2WX 170756Z AUTO 15016KT M08/M10 A3005 RMK AO1 SLP228
T10831100





000
SAUS43 KUNR 170657
MTRD07
METAR KD07 170656Z AUTO 12012KT M08/M11 A3020 RMK AO1 SLP275
T10831111 410561083 $





000
SAUS43 KUNR 170657
MTR2WX
METAR K2WX 170656Z AUTO 13013KT M09/M11 A3006 RMK AO1 SLP231
T10891106 410671094





000
SAUS43 KUNR 170557
MTRD07
METAR KD07 170556Z AUTO 13010KT M08/M11 A3022 RMK AO1 SLP281
T10781111 11067 21078 $





000
SAUS43 KUNR 170557
MTR2WX
METAR K2WX 170556Z AUTO 13015KT M09/M11 A3008 RMK AO1 SLP237
T10891106 11078 21094 56005





000
SAUS43 KUNR 170458
MTRD07
METAR KD07 170456Z AUTO 15009KT M08/M11 A3022 RMK AO1 SLP282
T10781111 $





000
SAUS43 KUNR 170458
MTRD07
METAR KD07 170456Z AUTO 15009KT M08/M11 A3022 RMK AO1 SLP282
T10781111 $





000
SAUS43 KUNR 170457
MTR2WX
METAR K2WX 170456Z AUTO 14013KT M09/M11 A3009 RMK AO1 SLP241
T10891106





000
SAUS43 KUNR 170457
MTR2WX
METAR K2WX 170456Z AUTO 14013KT M09/M11 A3009 RMK AO1 SLP241
T10891106





    US Dept of Commerce
    National Oceanic and Atmospheric Administration
    National Weather Service
    1325 East West Highway
    Silver Spring, MD 20910
    Page Author: NWS Internet Services Team
Disclaimer
Information Quality
Credits
Glossary
Privacy Policy
Freedom of Information Act (FOIA)
About Us
Career Opportunities